Terminal Aerodrome Forecast
Issued by NWS

Home | Current Version | Previous Version | Text Only | Print | Product List | Glossary On
Versions: 1 2 3 4 5 6 7 8 9 10 11 12 13 14
000
FTUS43 KSGF 271720
TAFJLN
TAF
KJLN 271720Z 2718/2818 16009KT P6SM VCSH SCT030
     FM272000 16009KT P6SM VCTS SCT015 BKN030CB
     FM272200 18011KT P6SM -SHRA BKN030
      TEMPO 2722/2802 4SM TS OVC025CB
     FM280200 17008KT P6SM BKN080 PROB30 2809/2812 4SM -TSRA
      OVC025CB
     FM281200 18009KT P6SM BKN015
     FM281700 20012KT P6SM BKN020=

USA.gov is the U.S. government's official web portal to all federal, state and local government web resources and services.